Terminal Aerodrome Forecast
Issued by NWS

Home | Current Version | Previous Version | Text Only | Print | Product List | Glossary On
Versions: 1 2 3 4 5 6 7 8 9 10 11 12 13 14 15 16 17 18 19
691
FTUS41 KGYX 180520
TAFHIE
TAF
KHIE 180520Z 1806/1906 00000KT P6SM BKN250
     FM181300 00000KT 2SM -SN BR OVC015
     FM181900 00000KT 1/2SM -SN FG OVC007=

USA.gov is the U.S. government's official web portal to all federal, state and local government web resources and services.